sensor_id;sensor_type;location;lat;lon;timestamp;pressure;altitude;pressure_sealevel;temperature
4421;BMP180;11824;51.178;13.546;2022-12-18T00:02:24;101722.00;;;-9.20
4421;BMP180;11824;51.178;13.546;2022-12-18T00:04:51;101729.00;;;-9.30
4421;BMP180;11824;51.178;13.546;2022-12-18T00:07:19;101733.00;;;-9.30
4421;BMP180;11824;51.178;13.546;2022-12-18T00:09:46;101753.00;;;-9.30
4421;BMP180;11824;51.178;13.546;2022-12-18T00:12:14;101747.00;;;-9.30
4421;BMP180;11824;51.178;13.546;2022-12-18T00:14:42;101766.00;;;-9.40
4421;BMP180;11824;51.178;13.546;2022-12-18T00:17:11;101773.00;;;-9.40
4421;BMP180;11824;51.178;13.546;2022-12-18T00:19:39;101762.00;;;-9.40
4421;BMP180;11824;51.178;13.546;2022-12-18T00:22:06;101771.00;;;-9.40
4421;BMP180;11824;51.178;13.546;2022-12-18T00:24:34;101757.00;;;-9.40
4421;BMP180;11824;51.178;13.546;2022-12-18T00:27:02;101762.00;;;-9.50
4421;BMP180;11824;51.178;13.546;2022-12-18T00:29:29;101758.00;;;-9.50
4421;BMP180;11824;51.178;13.546;2022-12-18T00:31:58;101763.00;;;-9.60
4421;BMP180;11824;51.178;13.546;2022-12-18T00:34:25;101764.00;;;-9.60
4421;BMP180;11824;51.178;13.546;2022-12-18T00:36:53;101775.00;;;-9.70
4421;BMP180;11824;51.178;13.546;2022-12-18T00:39:20;101778.00;;;-9.70
4421;BMP180;11824;51.178;13.546;2022-12-18T00:41:48;101774.00;;;-9.80
4421;BMP180;11824;51.178;13.546;2022-12-18T00:44:33;101773.00;;;-9.80
4421;BMP180;11824;51.178;13.546;2022-12-18T00:47:02;101782.00;;;-9.90
4421;BMP180;11824;51.178;13.546;2022-12-18T00:49:29;101783.00;;;-9.90
4421;BMP180;11824;51.178;13.546;2022-12-18T00:51:57;101784.00;;;-10.00
4421;BMP180;11824;51.178;13.546;2022-12-18T00:54:24;101771.00;;;-10.00
4421;BMP180;11824;51.178;13.546;2022-12-18T00:56:52;101775.00;;;-10.10
4421;BMP180;11824;51.178;13.546;2022-12-18T00:59:19;101771.00;;;-10.10
4421;BMP180;11824;51.178;13.546;2022-12-18T01:01:47;101777.00;;;-10.10
4421;BMP180;11824;51.178;13.546;2022-12-18T01:04:16;101775.00;;;-10.20
4421;BMP180;11824;51.178;13.546;2022-12-18T01:06:43;101775.00;;;-10.20
4421;BMP180;11824;51.178;13.546;2022-12-18T01:09:11;101775.00;;;-10.30
4421;BMP180;11824;51.178;13.546;2022-12-18T01:11:39;101785.00;;;-10.30
4421;BMP180;11824;51.178;13.546;2022-12-18T01:14:07;101779.00;;;-10.30
4421;BMP180;11824;51.178;13.546;2022-12-18T01:16:34;101794.00;;;-10.30
4421;BMP180;11824;51.178;13.546;2022-12-18T01:19:02;101798.00;;;-10.30
4421;BMP180;11824;51.178;13.546;2022-12-18T01:21:30;101795.00;;;-10.30
4421;BMP180;11824;51.178;13.546;2022-12-18T01:23:58;101791.00;;;-10.30
4421;BMP180;11824;51.178;13.546;2022-12-18T01:26:26;101800.00;;;-10.30
4421;BMP180;11824;51.178;13.546;2022-12-18T01:28:56;101802.00;;;-10.30
4421;BMP180;11824;51.178;13.546;2022-12-18T01:31:25;101793.00;;;-10.30
4421;BMP180;11824;51.178;13.546;2022-12-18T01:33:54;101791.00;;;-10.30
4421;BMP180;11824;51.178;13.546;2022-12-18T01:36:23;101800.00;;;-10.30
4421;BMP180;11824;51.178;13.546;2022-12-18T01:38:52;101790.00;;;-10.40
4421;BMP180;11824;51.178;13.546;2022-12-18T01:41:22;101799.00;;;-10.40
4421;BMP180;11824;51.178;13.546;2022-12-18T01:43:53;101795.00;;;-10.50
4421;BMP180;11824;51.178;13.546;2022-12-18T01:46:22;101799.00;;;-10.50
4421;BMP180;11824;51.178;13.546;2022-12-18T01:48:51;101783.00;;;-10.60
4421;BMP180;11824;51.178;13.546;2022-12-18T01:51:19;101800.00;;;-10.70
4421;BMP180;11824;51.178;13.546;2022-12-18T01:53:47;101803.00;;;-10.70
4421;BMP180;11824;51.178;13.546;2022-12-18T01:56:20;101799.00;;;-10.70
4421;BMP180;11824;51.178;13.546;2022-12-18T01:58:54;101801.00;;;-10.80
4421;BMP180;11824;51.178;13.546;2022-12-18T02:01:23;101803.00;;;-10.70
4421;BMP180;11824;51.178;13.546;2022-12-18T02:03:52;101799.00;;;-10.80
4421;BMP180;11824;51.178;13.546;2022-12-18T02:06:24;101789.00;;;-10.80
4421;BMP180;11824;51.178;13.546;2022-12-18T02:09:02;101793.00;;;-10.80
4421;BMP180;11824;51.178;13.546;2022-12-18T02:11:40;101798.00;;;-10.80
4421;BMP180;11824;51.178;13.546;2022-12-18T02:14:17;101798.00;;;-10.80
4421;BMP180;11824;51.178;13.546;2022-12-18T02:16:48;101790.00;;;-10.80
4421;BMP180;11824;51.178;13.546;2022-12-18T02:19:37;101794.00;;;-10.80
4421;BMP180;11824;51.178;13.546;2022-12-18T02:22:20;101794.00;;;-10.80
4421;BMP180;11824;51.178;13.546;2022-12-18T02:25:00;101794.00;;;-10.80
4421;BMP180;11824;51.178;13.546;2022-12-18T02:27:33;101808.00;;;-10.90
4421;BMP180;11824;51.178;13.546;2022-12-18T02:30:03;101815.00;;;-10.80
4421;BMP180;11824;51.178;13.546;2022-12-18T02:32:34;101805.00;;;-10.90
4421;BMP180;11824;51.178;13.546;2022-12-18T02:35:06;101810.00;;;-10.90
4421;BMP180;11824;51.178;13.546;2022-12-18T02:37:35;101811.00;;;-10.80
4421;BMP180;11824;51.178;13.546;2022-12-18T02:40:04;101818.00;;;-10.80
4421;BMP180;11824;51.178;13.546;2022-12-18T02:42:33;101810.00;;;-10.80
4421;BMP180;11824;51.178;13.546;2022-12-18T02:45:01;101812.00;;;-10.80
4421;BMP180;11824;51.178;13.546;2022-12-18T02:47:30;101812.00;;;-10.80
4421;BMP180;11824;51.178;13.546;2022-12-18T02:50:05;101822.00;;;-10.80
4421;BMP180;11824;51.178;13.546;2022-12-18T02:52:39;101823.00;;;-10.80
4421;BMP180;11824;51.178;13.546;2022-12-18T02:55:19;101807.00;;;-10.90
4421;BMP180;11824;51.178;13.546;2022-12-18T02:57:55;101807.00;;;-10.90
4421;BMP180;11824;51.178;13.546;2022-12-18T03:00:27;101818.00;;;-11.00
4421;BMP180;11824;51.178;13.546;2022-12-18T03:02:59;101810.00;;;-11.00
4421;BMP180;11824;51.178;13.546;2022-12-18T03:05:31;101810.00;;;-11.00
4421;BMP180;11824;51.178;13.546;2022-12-18T03:08:03;101807.00;;;-11.00
4421;BMP180;11824;51.178;13.546;2022-12-18T03:10:34;101806.00;;;-11.00
4421;BMP180;11824;51.178;13.546;2022-12-18T03:13:07;101816.00;;;-11.00
4421;BMP180;11824;51.178;13.546;2022-12-18T03:15:38;101801.00;;;-11.00
4421;BMP180;11824;51.178;13.546;2022-12-18T03:18:10;101821.00;;;-11.00
4421;BMP180;11824;51.178;13.546;2022-12-18T03:20:42;101819.00;;;-11.00
4421;BMP180;11824;51.178;13.546;2022-12-18T03:23:14;101825.00;;;-11.00
4421;BMP180;11824;51.178;13.546;2022-12-18T03:25:44;101830.00;;;-11.00
4421;BMP180;11824;51.178;13.546;2022-12-18T03:28:16;101823.00;;;-11.10
4421;BMP180;11824;51.178;13.546;2022-12-18T03:30:49;101836.00;;;-11.10
4421;BMP180;11824;51.178;13.546;2022-12-18T03:33:21;101831.00;;;-11.10
4421;BMP180;11824;51.178;13.546;2022-12-18T03:35:51;101836.00;;;-11.10
4421;BMP180;11824;51.178;13.546;2022-12-18T03:38:19;101832.00;;;-11.10
4421;BMP180;11824;51.178;13.546;2022-12-18T03:40:56;101838.00;;;-11.10
4421;BMP180;11824;51.178;13.546;2022-12-18T03:43:35;101840.00;;;-11.10
4421;BMP180;11824;51.178;13.546;2022-12-18T03:46:11;101828.00;;;-11.10
4421;BMP180;11824;51.178;13.546;2022-12-18T03:48:44;101837.00;;;-11.10
4421;BMP180;11824;51.178;13.546;2022-12-18T03:51:22;101836.00;;;-11.10
4421;BMP180;11824;51.178;13.546;2022-12-18T03:53:55;101833.00;;;-11.10
4421;BMP180;11824;51.178;13.546;2022-12-18T03:56:26;101833.00;;;-11.10
4421;BMP180;11824;51.178;13.546;2022-12-18T03:58:57;101834.00;;;-11.10
4421;BMP180;11824;51.178;13.546;2022-12-18T04:01:30;101839.00;;;-11.10
4421;BMP180;11824;51.178;13.546;2022-12-18T04:04:00;101850.00;;;-11.10
4421;BMP180;11824;51.178;13.546;2022-12-18T04:06:28;101833.00;;;-11.00
4421;BMP180;11824;51.178;13.546;2022-12-18T04:08:57;101846.00;;;-11.00
4421;BMP180;11824;51.178;13.546;2022-12-18T04:11:25;101845.00;;;-11.00
4421;BMP180;11824;51.178;13.546;2022-12-18T04:13:56;101845.00;;;-10.90
4421;BMP180;11824;51.178;13.546;2022-12-18T04:16:24;101853.00;;;-10.90
4421;BMP180;11824;51.178;13.546;2022-12-18T04:18:52;101859.00;;;-10.90
4421;BMP180;11824;51.178;13.546;2022-12-18T04:21:19;101848.00;;;-10.90
4421;BMP180;11824;51.178;13.546;2022-12-18T04:23:47;101849.00;;;-10.90
4421;BMP180;11824;51.178;13.546;2022-12-18T04:26:14;101857.00;;;-11.00
4421;BMP180;11824;51.178;13.546;2022-12-18T04:28:42;101859.00;;;-11.00
4421;BMP180;11824;51.178;13.546;2022-12-18T04:31:10;101862.00;;;-11.00
4421;BMP180;11824;51.178;13.546;2022-12-18T04:33:38;101853.00;;;-11.00
4421;BMP180;11824;51.178;13.546;2022-12-18T04:36:06;101862.00;;;-11.00
4421;BMP180;11824;51.178;13.546;2022-12-18T04:38:34;101856.00;;;-11.00
4421;BMP180;11824;51.178;13.546;2022-12-18T04:41:01;101857.00;;;-10.90
4421;BMP180;11824;51.178;13.546;2022-12-18T04:43:29;101859.00;;;-10.90
4421;BMP180;11824;51.178;13.546;2022-12-18T04:46:02;101853.00;;;-10.90
4421;BMP180;11824;51.178;13.546;2022-12-18T04:48:31;101856.00;;;-10.90
4421;BMP180;11824;51.178;13.546;2022-12-18T04:50:59;101858.00;;;-10.90
4421;BMP180;11824;51.178;13.546;2022-12-18T04:53:26;101854.00;;;-11.00
4421;BMP180;11824;51.178;13.546;2022-12-18T04:56:03;101860.00;;;-11.00
4421;BMP180;11824;51.178;13.546;2022-12-18T04:58:31;101869.00;;;-11.00
4421;BMP180;11824;51.178;13.546;2022-12-18T05:00:59;101870.00;;;-11.00
4421;BMP180;11824;51.178;13.546;2022-12-18T05:03:27;101858.00;;;-11.10
4421;BMP180;11824;51.178;13.546;2022-12-18T05:05:55;101861.00;;;-11.10
4421;BMP180;11824;51.178;13.546;2022-12-18T05:08:23;101857.00;;;-11.10
4421;BMP180;11824;51.178;13.546;2022-12-18T05:10:58;101871.00;;;-11.10
4421;BMP180;11824;51.178;13.546;2022-12-18T05:13:26;101864.00;;;-11.10
4421;BMP180;11824;51.178;13.546;2022-12-18T05:15:54;101863.00;;;-11.20
4421;BMP180;11824;51.178;13.546;2022-12-18T05:18:21;101871.00;;;-11.20
4421;BMP180;11824;51.178;13.546;2022-12-18T05:20:49;101873.00;;;-11.30
4421;BMP180;11824;51.178;13.546;2022-12-18T05:23:18;101877.00;;;-11.30
4421;BMP180;11824;51.178;13.546;2022-12-18T05:25:49;101854.00;;;-11.30
4421;BMP180;11824;51.178;13.546;2022-12-18T05:28:17;101854.00;;;-11.30
4421;BMP180;11824;51.178;13.546;2022-12-18T05:30:48;101860.00;;;-11.30
4421;BMP180;11824;51.178;13.546;2022-12-18T05:33:16;101856.00;;;-11.30
4421;BMP180;11824;51.178;13.546;2022-12-18T05:35:44;101858.00;;;-11.30
4421;BMP180;11824;51.178;13.546;2022-12-18T05:38:11;101870.00;;;-11.40
4421;BMP180;11824;51.178;13.546;2022-12-18T05:40:42;101876.00;;;-11.40
4421;BMP180;11824;51.178;13.546;2022-12-18T05:43:10;101865.00;;;-11.40
4421;BMP180;11824;51.178;13.546;2022-12-18T05:45:44;101861.00;;;-11.50
4421;BMP180;11824;51.178;13.546;2022-12-18T05:48:12;101873.00;;;-11.50
4421;BMP180;11824;51.178;13.546;2022-12-18T05:50:41;101873.00;;;-11.50
4421;BMP180;11824;51.178;13.546;2022-12-18T05:53:09;101858.00;;;-11.50
4421;BMP180;11824;51.178;13.546;2022-12-18T05:55:38;101856.00;;;-11.50
4421;BMP180;11824;51.178;13.546;2022-12-18T05:58:08;101859.00;;;-11.50
4421;BMP180;11824;51.178;13.546;2022-12-18T06:00:37;101871.00;;;-11.50
4421;BMP180;11824;51.178;13.546;2022-12-18T06:03:06;101865.00;;;-11.50
4421;BMP180;11824;51.178;13.546;2022-12-18T06:05:36;101882.00;;;-11.60
4421;BMP180;11824;51.178;13.546;2022-12-18T06:08:04;101890.00;;;-11.60
4421;BMP180;11824;51.178;13.546;2022-12-18T06:10:32;101889.00;;;-11.60
4421;BMP180;11824;51.178;13.546;2022-12-18T06:12:59;101891.00;;;-11.60
4421;BMP180;11824;51.178;13.546;2022-12-18T06:15:27;101894.00;;;-11.60
4421;BMP180;11824;51.178;13.546;2022-12-18T06:17:55;101899.00;;;-11.60
4421;BMP180;11824;51.178;13.546;2022-12-18T06:20:22;101901.00;;;-11.60
4421;BMP180;11824;51.178;13.546;2022-12-18T06:22:50;101903.00;;;-11.60
4421;BMP180;11824;51.178;13.546;2022-12-18T06:25:17;101902.00;;;-11.60
4421;BMP180;11824;51.178;13.546;2022-12-18T06:27:46;101912.00;;;-11.60
4421;BMP180;11824;51.178;13.546;2022-12-18T06:30:14;101899.00;;;-11.60
4421;BMP180;11824;51.178;13.546;2022-12-18T06:32:43;101905.00;;;-11.60
4421;BMP180;11824;51.178;13.546;2022-12-18T06:35:14;101897.00;;;-11.60
4421;BMP180;11824;51.178;13.546;2022-12-18T06:37:42;101906.00;;;-11.60
4421;BMP180;11824;51.178;13.546;2022-12-18T06:40:10;101917.00;;;-11.60
4421;BMP180;11824;51.178;13.546;2022-12-18T06:42:37;101910.00;;;-11.60
4421;BMP180;11824;51.178;13.546;2022-12-18T06:45:06;101916.00;;;-11.70
4421;BMP180;11824;51.178;13.546;2022-12-18T06:47:33;101918.00;;;-11.70
4421;BMP180;11824;51.178;13.546;2022-12-18T06:50:01;101918.00;;;-11.70
4421;BMP180;11824;51.178;13.546;2022-12-18T06:52:31;101929.00;;;-11.70
4421;BMP180;11824;51.178;13.546;2022-12-18T06:54:58;101929.00;;;-11.70
4421;BMP180;11824;51.178;13.546;2022-12-18T06:57:26;101932.00;;;-11.70
4421;BMP180;11824;51.178;13.546;2022-12-18T06:59:53;101935.00;;;-11.70
4421;BMP180;11824;51.178;13.546;2022-12-18T07:02:20;101926.00;;;-11.80
4421;BMP180;11824;51.178;13.546;2022-12-18T07:04:49;101927.00;;;-11.80
4421;BMP180;11824;51.178;13.546;2022-12-18T07:07:17;101931.00;;;-11.80
4421;BMP180;11824;51.178;13.546;2022-12-18T07:09:45;101930.00;;;-11.80
4421;BMP180;11824;51.178;13.546;2022-12-18T07:12:13;101930.00;;;-11.80
4421;BMP180;11824;51.178;13.546;2022-12-18T07:14:41;101934.00;;;-11.80
4421;BMP180;11824;51.178;13.546;2022-12-18T07:17:08;101935.00;;;-11.80
4421;BMP180;11824;51.178;13.546;2022-12-18T07:19:36;101929.00;;;-11.80
4421;BMP180;11824;51.178;13.546;2022-12-18T07:22:03;101931.00;;;-11.70
4421;BMP180;11824;51.178;13.546;2022-12-18T07:24:33;101925.00;;;-11.70
4421;BMP180;11824;51.178;13.546;2022-12-18T07:27:01;101935.00;;;-11.70
4421;BMP180;11824;51.178;13.546;2022-12-18T07:29:28;101939.00;;;-11.70
4421;BMP180;11824;51.178;13.546;2022-12-18T07:31:56;101949.00;;;-11.60
4421;BMP180;11824;51.178;13.546;2022-12-18T07:34:23;101949.00;;;-11.60
4421;BMP180;11824;51.178;13.546;2022-12-18T07:36:51;101944.00;;;-11.60
4421;BMP180;11824;51.178;13.546;2022-12-18T07:39:19;101940.00;;;-11.50
4421;BMP180;11824;51.178;13.546;2022-12-18T07:41:47;101946.00;;;-11.50
4421;BMP180;11824;51.178;13.546;2022-12-18T07:44:35;101957.00;;;-11.50
4421;BMP180;11824;51.178;13.546;2022-12-18T07:47:03;101957.00;;;-11.40
4421;BMP180;11824;51.178;13.546;2022-12-18T07:49:38;101952.00;;;-11.40
4421;BMP180;11824;51.178;13.546;2022-12-18T07:52:05;101955.00;;;-11.30
4421;BMP180;11824;51.178;13.546;2022-12-18T07:54:32;101960.00;;;-11.30
4421;BMP180;11824;51.178;13.546;2022-12-18T07:57:01;101961.00;;;-11.20
4421;BMP180;11824;51.178;13.546;2022-12-18T07:59:28;101951.00;;;-11.20
4421;BMP180;11824;51.178;13.546;2022-12-18T08:01:55;101962.00;;;-11.10
4421;BMP180;11824;51.178;13.546;2022-12-18T08:04:23;101951.00;;;-11.10
4421;BMP180;11824;51.178;13.546;2022-12-18T08:06:50;101950.00;;;-11.00
4421;BMP180;11824;51.178;13.546;2022-12-18T08:09:18;101937.00;;;-11.00
4421;BMP180;11824;51.178;13.546;2022-12-18T08:11:45;101958.00;;;-10.90
4421;BMP180;11824;51.178;13.546;2022-12-18T08:14:14;101955.00;;;-10.80
4421;BMP180;11824;51.178;13.546;2022-12-18T08:16:42;101952.00;;;-10.70
4421;BMP180;11824;51.178;13.546;2022-12-18T08:19:09;101948.00;;;-10.70
4421;BMP180;11824;51.178;13.546;2022-12-18T08:21:37;101950.00;;;-10.60
4421;BMP180;11824;51.178;13.546;2022-12-18T08:24:05;101946.00;;;-10.50
4421;BMP180;11824;51.178;13.546;2022-12-18T08:26:33;101955.00;;;-10.40
4421;BMP180;11824;51.178;13.546;2022-12-18T08:29:01;101952.00;;;-10.40
4421;BMP180;11824;51.178;13.546;2022-12-18T08:31:30;101954.00;;;-10.30
4421;BMP180;11824;51.178;13.546;2022-12-18T08:33:58;101956.00;;;-10.20
4421;BMP180;11824;51.178;13.546;2022-12-18T08:36:26;101960.00;;;-10.20
4421;BMP180;11824;51.178;13.546;2022-12-18T08:38:53;101954.00;;;-10.00
4421;BMP180;11824;51.178;13.546;2022-12-18T08:41:21;101953.00;;;-10.00
4421;BMP180;11824;51.178;13.546;2022-12-18T08:43:49;101957.00;;;-9.90
4421;BMP180;11824;51.178;13.546;2022-12-18T08:46:37;101956.00;;;-9.80
4421;BMP180;11824;51.178;13.546;2022-12-18T08:49:05;101959.00;;;-9.70
4421;BMP180;11824;51.178;13.546;2022-12-18T08:51:34;101957.00;;;-9.60
4421;BMP180;11824;51.178;13.546;2022-12-18T08:54:03;101961.00;;;-9.50
4421;BMP180;11824;51.178;13.546;2022-12-18T08:56:32;101965.00;;;-9.40
4421;BMP180;11824;51.178;13.546;2022-12-18T08:59:00;101966.00;;;-9.30
4421;BMP180;11824;51.178;13.546;2022-12-18T09:01:29;101966.00;;;-9.20
4421;BMP180;11824;51.178;13.546;2022-12-18T09:03:58;101960.00;;;-9.10
4421;BMP180;11824;51.178;13.546;2022-12-18T09:06:26;101958.00;;;-9.00
4421;BMP180;11824;51.178;13.546;2022-12-18T09:08:54;101959.00;;;-9.00
4421;BMP180;11824;51.178;13.546;2022-12-18T09:11:23;101972.00;;;-8.90
4421;BMP180;11824;51.178;13.546;2022-12-18T09:13:51;101988.00;;;-8.80
4421;BMP180;11824;51.178;13.546;2022-12-18T09:16:19;101987.00;;;-8.70
4421;BMP180;11824;51.178;13.546;2022-12-18T09:18:47;101987.00;;;-8.60
4421;BMP180;11824;51.178;13.546;2022-12-18T09:21:17;101992.00;;;-8.60
4421;BMP180;11824;51.178;13.546;2022-12-18T09:23:50;101997.00;;;-8.50
4421;BMP180;11824;51.178;13.546;2022-12-18T09:26:17;101987.00;;;-8.40
4421;BMP180;11824;51.178;13.546;2022-12-18T09:28:45;101982.00;;;-8.40
4421;BMP180;11824;51.178;13.546;2022-12-18T09:31:14;101983.00;;;-8.30
4421;BMP180;11824;51.178;13.546;2022-12-18T09:33:43;101988.00;;;-8.30
4421;BMP180;11824;51.178;13.546;2022-12-18T09:36:13;101994.00;;;-8.20
4421;BMP180;11824;51.178;13.546;2022-12-18T09:38:42;101980.00;;;-8.10
4421;BMP180;11824;51.178;13.546;2022-12-18T09:41:19;101980.00;;;-8.10
4421;BMP180;11824;51.178;13.546;2022-12-18T09:43:55;101985.00;;;-8.00
4421;BMP180;11824;51.178;13.546;2022-12-18T09:46:28;101987.00;;;-7.90
4421;BMP180;11824;51.178;13.546;2022-12-18T09:49:00;101976.00;;;-7.90
4421;BMP180;11824;51.178;13.546;2022-12-18T09:51:32;101957.00;;;-7.80
4421;BMP180;11824;51.178;13.546;2022-12-18T09:54:05;101973.00;;;-7.80
4421;BMP180;11824;51.178;13.546;2022-12-18T09:56:37;101967.00;;;-7.70
4421;BMP180;11824;51.178;13.546;2022-12-18T09:59:09;101962.00;;;-7.70
4421;BMP180;11824;51.178;13.546;2022-12-18T10:01:42;101960.00;;;-7.60
4421;BMP180;11824;51.178;13.546;2022-12-18T10:04:13;101948.00;;;-7.50
4421;BMP180;11824;51.178;13.546;2022-12-18T10:06:45;101942.00;;;-7.50
4421;BMP180;11824;51.178;13.546;2022-12-18T10:09:23;101938.00;;;-7.40
4421;BMP180;11824;51.178;13.546;2022-12-18T10:11:56;101935.00;;;-7.30
4421;BMP180;11824;51.178;13.546;2022-12-18T10:14:36;101930.00;;;-7.30
4421;BMP180;11824;51.178;13.546;2022-12-18T10:17:17;101921.00;;;-7.20
4421;BMP180;11824;51.178;13.546;2022-12-18T10:19:52;101919.00;;;-7.10
4421;BMP180;11824;51.178;13.546;2022-12-18T10:25:20;101912.00;;;-6.90
4421;BMP180;11824;51.178;13.546;2022-12-18T10:27:52;101905.00;;;-6.90
4421;BMP180;11824;51.178;13.546;2022-12-18T10:30:23;101907.00;;;-6.80
4421;BMP180;11824;51.178;13.546;2022-12-18T10:32:51;101901.00;;;-6.70
4421;BMP180;11824;51.178;13.546;2022-12-18T10:35:20;101895.00;;;-6.60
4421;BMP180;11824;51.178;13.546;2022-12-18T10:38:07;101893.00;;;-6.50
4421;BMP180;11824;51.178;13.546;2022-12-18T10:40:52;101901.00;;;-6.40
4421;BMP180;11824;51.178;13.546;2022-12-18T10:43:25;101886.00;;;-6.40
4421;BMP180;11824;51.178;13.546;2022-12-18T10:46:02;101885.00;;;-6.30
4421;BMP180;11824;51.178;13.546;2022-12-18T10:48:31;101888.00;;;-6.20
4421;BMP180;11824;51.178;13.546;2022-12-18T10:50:58;101880.00;;;-6.10
4421;BMP180;11824;51.178;13.546;2022-12-18T10:53:44;101891.00;;;-6.00
4421;BMP180;11824;51.178;13.546;2022-12-18T10:56:20;101885.00;;;-5.90
4421;BMP180;11824;51.178;13.546;2022-12-18T10:58:57;101864.00;;;-5.80
4421;BMP180;11824;51.178;13.546;2022-12-18T11:01:25;101871.00;;;-5.80
4421;BMP180;11824;51.178;13.546;2022-12-18T11:04:02;101870.00;;;-5.60
4421;BMP180;11824;51.178;13.546;2022-12-18T11:06:53;101874.00;;;-5.50
4421;BMP180;11824;51.178;13.546;2022-12-18T11:09:23;101870.00;;;-5.40
4421;BMP180;11824;51.178;13.546;2022-12-18T11:11:54;101863.00;;;-5.30
4421;BMP180;11824;51.178;13.546;2022-12-18T11:14:25;101848.00;;;-5.20
4421;BMP180;11824;51.178;13.546;2022-12-18T11:16:53;101840.00;;;-5.10
4421;BMP180;11824;51.178;13.546;2022-12-18T11:19:42;101851.00;;;-4.90
4421;BMP180;11824;51.178;13.546;2022-12-18T11:22:20;101847.00;;;-4.80
4421;BMP180;11824;51.178;13.546;2022-12-18T11:24:55;101842.00;;;-4.60
4421;BMP180;11824;51.178;13.546;2022-12-18T11:27:49;101847.00;;;-4.50
4421;BMP180;11824;51.178;13.546;2022-12-18T11:30:22;101854.00;;;-4.30
4421;BMP180;11824;51.178;13.546;2022-12-18T11:32:52;101847.00;;;-4.20
4421;BMP180;11824;51.178;13.546;2022-12-18T11:35:35;101847.00;;;-4.10
4421;BMP180;11824;51.178;13.546;2022-12-18T11:38:11;101833.00;;;-4.00
4421;BMP180;11824;51.178;13.546;2022-12-18T11:40:43;101847.00;;;-3.80
4421;BMP180;11824;51.178;13.546;2022-12-18T11:43:17;101846.00;;;-3.70
4421;BMP180;11824;51.178;13.546;2022-12-18T11:45:51;101857.00;;;-3.60
4421;BMP180;11824;51.178;13.546;2022-12-18T11:48:25;101859.00;;;-3.50
4421;BMP180;11824;51.178;13.546;2022-12-18T11:50:55;101859.00;;;-3.40
4421;BMP180;11824;51.178;13.546;2022-12-18T11:53:25;101852.00;;;-3.30
4421;BMP180;11824;51.178;13.546;2022-12-18T11:56:03;101849.00;;;-3.20
4421;BMP180;11824;51.178;13.546;2022-12-18T11:58:46;101862.00;;;-3.20
4421;BMP180;11824;51.178;13.546;2022-12-18T12:01:32;101869.00;;;-3.10
4421;BMP180;11824;51.178;13.546;2022-12-18T12:07:23;101870.00;;;-2.90
4421;BMP180;11824;51.178;13.546;2022-12-18T12:09:57;101875.00;;;-2.90
4421;BMP180;11824;51.178;13.546;2022-12-18T12:12:33;101862.00;;;-2.80
4421;BMP180;11824;51.178;13.546;2022-12-18T12:15:25;101870.00;;;-2.70
4421;BMP180;11824;51.178;13.546;2022-12-18T12:18:04;101882.00;;;-2.70
4421;BMP180;11824;51.178;13.546;2022-12-18T12:20:47;101890.00;;;-2.70
4421;BMP180;11824;51.178;13.546;2022-12-18T12:23:42;101889.00;;;-2.60
4421;BMP180;11824;51.178;13.546;2022-12-18T12:26:21;101894.00;;;-2.60
4421;BMP180;11824;51.178;13.546;2022-12-18T12:29:00;101895.00;;;-2.50
4421;BMP180;11824;51.178;13.546;2022-12-18T12:31:45;101907.00;;;-2.50
4421;BMP180;11824;51.178;13.546;2022-12-18T12:34:26;101905.00;;;-2.50
4421;BMP180;11824;51.178;13.546;2022-12-18T12:37:14;101918.00;;;-2.40
4421;BMP180;11824;51.178;13.546;2022-12-18T12:39:47;101912.00;;;-2.40
4421;BMP180;11824;51.178;13.546;2022-12-18T12:42:23;101892.00;;;-2.40
4421;BMP180;11824;51.178;13.546;2022-12-18T12:45:20;101877.00;;;-2.40
4421;BMP180;11824;51.178;13.546;2022-12-18T12:47:50;101881.00;;;-2.40
4421;BMP180;11824;51.178;13.546;2022-12-18T12:50:20;101873.00;;;-2.40
4421;BMP180;11824;51.178;13.546;2022-12-18T12:52:50;101874.00;;;-2.50
4421;BMP180;11824;51.178;13.546;2022-12-18T12:55:21;101884.00;;;-2.50
4421;BMP180;11824;51.178;13.546;2022-12-18T12:57:57;101870.00;;;-2.50
4421;BMP180;11824;51.178;13.546;2022-12-18T13:00:30;101863.00;;;-2.50
4421;BMP180;11824;51.178;13.546;2022-12-18T13:03:04;101864.00;;;-2.50
4421;BMP180;11824;51.178;13.546;2022-12-18T13:05:40;101876.00;;;-2.50
4421;BMP180;11824;51.178;13.546;2022-12-18T13:08:22;101874.00;;;-2.60
4421;BMP180;11824;51.178;13.546;2022-12-18T13:10:53;101861.00;;;-2.60
4421;BMP180;11824;51.178;13.546;2022-12-18T13:13:50;101857.00;;;-2.60
4421;BMP180;11824;51.178;13.546;2022-12-18T13:16:20;101852.00;;;-2.70
4421;BMP180;11824;51.178;13.546;2022-12-18T13:18:52;101861.00;;;-2.70
4421;BMP180;11824;51.178;13.546;2022-12-18T13:21:24;101856.00;;;-2.80
4421;BMP180;11824;51.178;13.546;2022-12-18T13:23:54;101870.00;;;-2.80
4421;BMP180;11824;51.178;13.546;2022-12-18T13:26:32;101873.00;;;-2.80
4421;BMP180;11824;51.178;13.546;2022-12-18T13:29:02;101870.00;;;-2.90
4421;BMP180;11824;51.178;13.546;2022-12-18T13:34:35;101870.00;;;-2.90
4421;BMP180;11824;51.178;13.546;2022-12-18T13:37:40;101875.00;;;-2.90
4421;BMP180;11824;51.178;13.546;2022-12-18T13:40:53;101860.00;;;-2.90
4421;BMP180;11824;51.178;13.546;2022-12-18T13:43:32;101859.00;;;-2.90
4421;BMP180;11824;51.178;13.546;2022-12-18T13:46:06;101857.00;;;-2.90
4421;BMP180;11824;51.178;13.546;2022-12-18T13:48:54;101863.00;;;-2.90
4421;BMP180;11824;51.178;13.546;2022-12-18T13:51:24;101860.00;;;-2.90
4421;BMP180;11824;51.178;13.546;2022-12-18T13:53:53;101864.00;;;-2.90
4421;BMP180;11824;51.178;13.546;2022-12-18T13:56:23;101873.00;;;-2.90
4421;BMP180;11824;51.178;13.546;2022-12-18T13:59:14;101860.00;;;-2.90
4421;BMP180;11824;51.178;13.546;2022-12-18T14:05:33;101872.00;;;-3.00
4421;BMP180;11824;51.178;13.546;2022-12-18T14:08:22;101879.00;;;-3.00
4421;BMP180;11824;51.178;13.546;2022-12-18T14:14:33;101859.00;;;-3.20
4421;BMP180;11824;51.178;13.546;2022-12-18T14:17:01;101849.00;;;-3.20
4421;BMP180;11824;51.178;13.546;2022-12-18T14:19:29;101831.00;;;-3.30
4421;BMP180;11824;51.178;13.546;2022-12-18T14:21:56;101853.00;;;-3.30
4421;BMP180;11824;51.178;13.546;2022-12-18T14:24:24;101853.00;;;-3.30
4421;BMP180;11824;51.178;13.546;2022-12-18T14:26:51;101844.00;;;-3.40
4421;BMP180;11824;51.178;13.546;2022-12-18T14:29:22;101844.00;;;-3.40
4421;BMP180;11824;51.178;13.546;2022-12-18T14:32:07;101834.00;;;-3.40